Time;durP1;ratioP1;P1;durP2;ratioP2;P2;SDS_P1;SDS_P2;PMS_P1;PMS_P2;Temp;Humidity;BMP_temperature;BMP_pressure;BME280_temperature;BME280_humidity;BME280_pressure;Samples;Min_cycle;Max_cycle;Signal;HPM_P1;HPM_P2
2022/05/08 00:02:24;;;;;;;11.63;7.82;;;;;;;13.68;nan;102351.47;5042780;28;20060;-46
2022/05/08 00:04:51;;;;;;;13.43;7.40;;;;;;;13.70;nan;102354.75;5045901;28;20419;-46
2022/05/08 00:07:18;;;;;;;10.55;7.25;;;;;;;13.72;nan;102352.66;5045823;28;20033;-46
2022/05/08 00:09:44;;;;;;;12.43;7.90;;;;;;;13.72;nan;102354.53;5043402;28;20023;-51
2022/05/08 00:12:14;;;;;;;10.82;7.93;;;;;;;13.71;nan;102350.19;5045296;28;20108;-48
2022/05/08 00:14:41;;;;;;;11.45;7.10;;;;;;;13.69;nan;102353.13;5042609;28;20123;-51
2022/05/08 00:17:07;;;;;;;11.25;7.70;;;;;;;13.67;nan;102349.00;5051067;28;20024;-46
2022/05/08 00:19:32;;;;;;;10.68;7.55;;;;;;;13.66;nan;102355.47;5049103;28;20041;-49
2022/05/08 00:21:58;;;;;;;11.50;7.57;;;;;;;13.63;nan;102350.50;5052221;28;20055;-50
2022/05/08 00:24:24;;;;;;;11.43;7.28;;;;;;;13.62;nan;102355.06;5048480;28;20020;-45
2022/05/08 00:26:50;;;;;;;16.02;8.00;;;;;;;13.59;nan;102350.97;5042415;28;20040;-47
2022/05/08 00:29:16;;;;;;;11.40;6.93;;;;;;;13.56;nan;102353.31;5043976;28;20032;-46
2022/05/08 00:31:42;;;;;;;8.65;6.43;;;;;;;13.56;nan;102356.81;5050786;28;20029;-47
2022/05/08 00:34:09;;;;;;;9.30;6.75;;;;;;;13.53;nan;102357.28;5046889;28;20032;-46
2022/05/08 00:36:34;;;;;;;8.05;5.72;;;;;;;13.48;nan;102351.75;5048665;28;20082;-49
2022/05/08 00:39:00;;;;;;;11.70;6.38;;;;;;;13.48;nan;102351.75;5047756;28;20029;-46
2022/05/08 00:41:26;;;;;;;6.35;4.93;;;;;;;13.50;nan;102351.53;5048187;28;20039;-46
2022/05/08 00:43:51;;;;;;;8.02;5.50;;;;;;;13.49;nan;102350.72;5044176;28;20049;-48
2022/05/08 00:46:17;;;;;;;8.98;5.22;;;;;;;13.49;nan;102347.19;5045579;28;20036;-46
2022/05/08 00:48:43;;;;;;;8.45;5.45;;;;;;;13.49;nan;102356.09;5048745;28;20433;-48
2022/05/08 00:51:10;;;;;;;6.75;4.70;;;;;;;13.43;nan;102362.38;5044934;28;20029;-47
2022/05/08 00:53:50;;;;;;;7.20;4.60;;;;;;;13.41;nan;102355.56;5041338;28;20084;-48
2022/05/08 00:56:17;;;;;;;7.72;4.45;;;;;;;13.32;nan;102357.78;5042427;28;20036;-47
2022/05/08 00:58:46;;;;;;;5.65;4.03;;;;;;;13.34;nan;102350.28;5039792;28;20039;-46
2022/05/08 01:01:13;;;;;;;5.05;3.90;;;;;;;13.35;nan;102362.69;5042242;28;20025;-47
2022/05/08 01:03:39;;;;;;;5.18;3.80;;;;;;;13.39;nan;102355.81;5040697;28;20033;-51
2022/05/08 01:06:06;;;;;;;5.50;4.13;;;;;;;13.41;nan;102358.25;5042481;28;20033;-46
2022/05/08 01:08:34;;;;;;;6.55;4.75;;;;;;;13.38;nan;102356.84;5044926;28;20021;-49
2022/05/08 01:11:04;;;;;;;4.97;3.67;;;;;;;13.19;nan;102366.00;5043759;28;20091;-48
2022/05/08 01:13:30;;;;;;;5.60;4.20;;;;;;;13.04;nan;102374.44;5045651;28;20382;-46
2022/05/08 01:15:56;;;;;;;4.40;3.53;;;;;;;12.99;nan;102364.34;5039417;28;20031;-48
2022/05/08 01:18:21;;;;;;;4.45;3.75;;;;;;;13.08;nan;102367.53;5047020;28;20021;-48
2022/05/08 01:20:48;;;;;;;7.35;3.63;;;;;;;13.14;nan;102371.22;5047304;28;20039;-49
2022/05/08 01:23:15;;;;;;;6.95;4.07;;;;;;;13.20;nan;102365.78;5049011;28;20151;-46
2022/05/08 01:25:56;;;;;;;4.28;3.50;;;;;;;13.16;nan;102353.81;5043373;28;20021;-46
2022/05/08 01:28:23;;;;;;;7.15;3.85;;;;;;;13.24;nan;102352.69;5049513;28;20035;-48
2022/05/08 01:30:52;;;;;;;5.13;3.67;;;;;;;13.15;nan;102362.91;5042474;28;20083;-46
2022/05/08 01:33:19;;;;;;;5.10;3.88;;;;;;;13.13;nan;102359.63;5042445;28;20585;-46
2022/05/08 01:35:46;;;;;;;5.65;4.05;;;;;;;13.12;nan;102360.69;5044393;28;20020;-47
2022/05/08 01:38:13;;;;;;;5.32;3.97;;;;;;;13.12;nan;102362.56;5049093;28;20390;-47
2022/05/08 01:40:40;;;;;;;6.28;4.13;;;;;;;13.10;nan;102370.00;5047929;28;21022;-47
2022/05/08 01:43:06;;;;;;;5.35;4.00;;;;;;;13.17;nan;102370.78;5042377;28;20040;-47
2022/05/08 01:45:32;;;;;;;6.03;3.95;;;;;;;13.22;nan;102368.25;5045637;28;20028;-47
2022/05/08 01:50:42;;;;;;;5.85;4.30;;;;;;;13.27;nan;102363.00;5048756;28;20075;-50
2022/05/08 01:53:08;;;;;;;5.40;3.92;;;;;;;13.20;nan;102367.66;5043051;28;20061;-50
2022/05/08 01:55:35;;;;;;;4.70;3.83;;;;;;;13.15;nan;102364.78;5048380;28;20024;-48
2022/05/08 01:58:01;;;;;;;6.68;4.05;;;;;;;13.10;nan;102368.13;5043534;28;20482;-48
2022/05/08 02:00:29;;;;;;;4.78;3.63;;;;;;;13.12;nan;102363.38;5045657;28;20047;-48
2022/05/08 02:02:58;;;;;;;8.25;4.40;;;;;;;13.17;nan;102363.50;5052402;28;20032;-48
2022/05/08 02:05:23;;;;;;;6.30;3.90;;;;;;;13.14;nan;102363.16;5045779;28;20013;-47
2022/05/08 02:07:49;;;;;;;6.05;3.70;;;;;;;13.08;nan;102377.50;5048393;28;20035;-48
2022/05/08 02:10:16;;;;;;;6.07;3.90;;;;;;;13.00;nan;102371.38;5046048;28;20025;-46
2022/05/08 02:12:43;;;;;;;5.38;3.78;;;;;;;13.03;nan;102362.03;5051650;28;20437;-46
2022/05/08 02:15:10;;;;;;;5.78;4.13;;;;;;;13.07;nan;102373.16;5046407;28;20033;-47
2022/05/08 02:17:37;;;;;;;5.75;4.50;;;;;;;13.12;nan;102378.72;5043467;28;20071;-46
2022/05/08 02:20:06;;;;;;;6.47;4.03;;;;;;;13.15;nan;102378.25;5047689;28;20063;-46
2022/05/08 02:22:34;;;;;;;5.60;4.10;;;;;;;13.18;nan;102375.94;5054365;28;20038;-48
2022/05/08 02:25:00;;;;;;;7.32;4.47;;;;;;;13.19;nan;102382.16;5048652;28;20020;-47
2022/05/08 02:27:26;;;;;;;6.43;3.72;;;;;;;13.17;nan;102384.22;5053146;28;20032;-49
2022/05/08 02:29:52;;;;;;;6.57;4.47;;;;;;;13.17;nan;102382.34;5052926;28;20021;-48
2022/05/08 02:32:18;;;;;;;6.53;4.32;;;;;;;13.15;nan;102384.44;5050111;28;20029;-48
2022/05/08 02:34:44;;;;;;;7.22;4.28;;;;;;;13.06;nan;102379.59;5045092;28;20025;-48
2022/05/08 02:37:11;;;;;;;4.82;4.18;;;;;;;12.94;nan;102382.22;5051539;28;20526;-45
2022/05/08 02:39:37;;;;;;;9.07;4.75;;;;;;;12.85;nan;102373.59;5051340;28;20037;-46
2022/05/08 02:42:03;;;;;;;8.45;4.97;;;;;;;12.77;nan;102383.84;5044298;28;21066;-49
2022/05/08 02:44:28;;;;;;;5.57;4.20;;;;;;;12.59;nan;102381.97;5048723;28;20112;-50
2022/05/08 02:46:54;;;;;;;6.55;4.72;;;;;;;12.46;nan;102385.59;5071283;22;20011;-46
2022/05/08 02:49:20;;;;;;;15.35;4.72;;;;;;;12.37;nan;102386.88;5046791;28;20028;-47
2022/05/08 02:51:46;;;;;;;7.25;4.68;;;;;;;12.33;nan;102388.38;5045965;28;20402;-46
2022/05/08 02:54:11;;;;;;;6.68;4.07;;;;;;;12.36;nan;102391.44;5047312;28;20017;-45
2022/05/08 02:59:21;;;;;;;6.30;4.87;;;;;;;12.41;nan;102396.19;5044907;28;20032;-48
2022/05/08 03:01:47;;;;;;;5.70;4.50;;;;;;;12.44;nan;102384.16;5046837;28;20025;-46
2022/05/08 03:04:12;;;;;;;7.45;4.50;;;;;;;12.48;nan;102390.72;5048243;28;20021;-45
2022/05/08 03:06:38;;;;;;;9.05;4.60;;;;;;;12.49;nan;102395.06;5039100;28;20020;-47
2022/05/08 03:09:04;;;;;;;6.75;4.60;;;;;;;12.50;nan;102392.16;5046229;28;20021;-45
2022/05/08 03:11:32;;;;;;;5.68;3.83;;;;;;;12.49;nan;102378.94;5045906;28;20040;-46
2022/05/08 03:13:58;;;;;;;4.78;4.13;;;;;;;12.43;nan;102396.78;5042885;28;20040;-48
2022/05/08 03:16:26;;;;;;;5.88;3.88;;;;;;;12.37;nan;102401.16;5042878;28;20025;-46
2022/05/08 03:18:51;;;;;;;6.28;4.05;;;;;;;12.35;nan;102403.25;5042728;28;20024;-45
2022/05/08 03:21:18;;;;;;;6.97;4.07;;;;;;;12.37;nan;102403.84;5043271;28;20056;-47
2022/05/08 03:23:44;;;;;;;5.75;3.60;;;;;;;12.43;nan;102406.72;5050561;28;20017;-45
2022/05/08 03:26:12;;;;;;;5.55;3.80;;;;;;;12.44;nan;102413.72;5045528;28;20075;-47
2022/05/08 03:28:38;;;;;;;7.35;3.95;;;;;;;12.44;nan;102411.88;5046198;28;20052;-46
2022/05/08 03:31:04;;;;;;;8.75;4.80;;;;;;;12.46;nan;102417.03;5044528;28;20415;-48
2022/05/08 03:33:31;;;;;;;5.03;4.28;;;;;;;12.45;nan;102415.38;5042569;28;20024;-48
2022/05/08 03:35:57;;;;;;;7.53;4.40;;;;;;;12.47;nan;102421.34;5047543;28;20037;-47
2022/05/08 03:38:23;;;;;;;5.65;4.03;;;;;;;12.48;nan;102425.69;5048361;28;20032;-47
2022/05/08 03:40:49;;;;;;;9.98;4.72;;;;;;;12.49;nan;102422.78;5044885;28;20029;-46
2022/05/08 03:43:14;;;;;;;6.85;3.80;;;;;;;12.50;nan;102424.41;5043838;28;20025;-46
2022/05/08 03:45:40;;;;;;;6.20;4.43;;;;;;;12.51;nan;102423.38;5045163;28;20037;-48
2022/05/08 03:48:06;;;;;;;10.40;4.15;;;;;;;12.52;nan;102424.19;5048664;28;20028;-46
2022/05/08 03:50:31;;;;;;;6.47;3.90;;;;;;;12.52;nan;102426.88;5041342;28;20048;-46
2022/05/08 03:52:58;;;;;;;6.18;3.63;;;;;;;12.51;nan;102430.63;5044076;28;20109;-48
2022/05/08 03:55:25;;;;;;;8.20;4.85;;;;;;;12.52;nan;102429.56;5043109;28;20060;-45
2022/05/08 03:57:51;;;;;;;7.90;4.93;;;;;;;12.53;nan;102423.97;5044203;28;20028;-45
2022/05/08 04:00:18;;;;;;;8.07;4.95;;;;;;;12.53;nan;102423.16;5037839;28;20033;-45
2022/05/08 04:02:44;;;;;;;8.63;4.53;;;;;;;12.51;nan;102427.94;5052351;28;20398;-47
2022/05/08 04:05:12;;;;;;;6.20;4.30;;;;;;;12.50;nan;102434.34;5054908;28;20020;-46
2022/05/08 04:07:41;;;;;;;6.80;4.28;;;;;;;12.52;nan;102437.63;5048226;28;20108;-47
2022/05/08 04:10:08;;;;;;;7.80;4.43;;;;;;;12.53;nan;102431.22;5042572;28;20032;-47
2022/05/08 04:12:35;;;;;;;7.82;5.00;;;;;;;12.53;nan;102431.22;5043380;28;20025;-47
2022/05/08 04:15:01;;;;;;;7.15;4.95;;;;;;;12.52;nan;102432.25;5041027;28;20016;-47
2022/05/08 04:17:28;;;;;;;8.23;4.28;;;;;;;12.44;nan;102429.88;5042461;28;20040;-45
2022/05/08 04:19:56;;;;;;;9.68;5.10;;;;;;;12.45;nan;102436.88;5039888;28;20108;-46
2022/05/08 04:25:27;;;;;;;10.05;4.55;;;;;;;12.50;nan;102434.34;4968945;28;20121;-45
2022/05/08 04:27:52;;;;;;;7.38;4.45;;;;;;;12.52;nan;102443.84;4966504;28;20026;-46
2022/05/08 04:30:18;;;;;;;9.48;4.57;;;;;;;12.53;nan;102442.78;5002811;28;20042;-45
2022/05/08 04:32:43;;;;;;;7.30;3.90;;;;;;;12.47;nan;102440.16;5039773;28;20025;-46
2022/05/08 04:35:09;;;;;;;9.55;4.68;;;;;;;12.49;nan;102440.78;5040544;28;20037;-46
2022/05/08 04:37:34;;;;;;;8.20;4.65;;;;;;;12.46;nan;102444.72;5043676;28;20033;-46
2022/05/08 04:40:00;;;;;;;7.45;3.65;;;;;;;12.46;nan;102450.09;5046451;28;20409;-45
2022/05/08 04:42:26;;;;;;;12.23;3.70;;;;;;;12.49;nan;102443.47;5040039;28;20033;-46
2022/05/08 04:44:54;;;;;;;7.95;4.13;;;;;;;12.48;nan;102439.94;5040504;28;20413;-45
2022/05/08 04:47:20;;;;;;;9.18;4.07;;;;;;;12.45;nan;102442.25;5038082;28;20025;-47
2022/05/08 04:49:45;;;;;;;7.90;3.85;;;;;;;12.47;nan;102441.00;5046128;28;20401;-49
2022/05/08 04:52:11;;;;;;;6.80;4.13;;;;;;;12.47;nan;102442.84;5043772;28;20020;-45
2022/05/08 04:54:37;;;;;;;8.93;4.03;;;;;;;12.45;nan;102444.94;5049370;28;20036;-48
2022/05/08 04:57:03;;;;;;;6.72;3.40;;;;;;;12.49;nan;102443.47;5042616;28;20029;-46
2022/05/08 04:59:28;;;;;;;6.65;4.07;;;;;;;12.53;nan;102452.72;5052195;28;20036;-46
2022/05/08 05:01:55;;;;;;;11.38;4.45;;;;;;;12.56;nan;102450.41;5046959;28;20025;-48
2022/05/08 05:04:21;;;;;;;9.07;4.10;;;;;;;12.59;nan;102449.19;5055822;28;20103;-47
2022/05/08 05:06:46;;;;;;;11.95;5.13;;;;;;;12.59;nan;102452.69;5046410;28;20100;-46
2022/05/08 05:09:12;;;;;;;10.50;3.95;;;;;;;12.51;nan;102452.13;5044212;28;20021;-45
2022/05/08 05:11:37;;;;;;;13.10;3.88;;;;;;;12.52;nan;102453.78;5040259;28;20025;-49
2022/05/08 05:14:03;;;;;;;7.82;3.80;;;;;;;12.49;nan;102454.22;5053792;28;20043;-48
2022/05/08 05:16:28;;;;;;;7.60;3.35;;;;;;;12.48;nan;102464.16;5047582;28;20025;-47
2022/05/08 05:18:54;;;;;;;9.13;3.28;;;;;;;12.60;nan;102464.28;5054922;28;20394;-45
2022/05/08 05:21:20;;;;;;;11.60;4.25;;;;;;;12.67;nan;102463.16;5047866;28;20109;-48
2022/05/08 05:23:46;;;;;;;7.88;3.65;;;;;;;12.79;nan;102467.81;5049033;28;20025;-47
2022/05/08 05:26:17;;;;;;;7.80;3.42;;;;;;;12.77;nan;102470.75;5044354;28;20128;-46
2022/05/08 05:28:44;;;;;;;5.55;3.33;;;;;;;12.82;nan;102470.91;5045721;28;20033;-46
2022/05/08 05:31:12;;;;;;;10.10;3.70;;;;;;;12.95;nan;102478.03;5045693;28;20436;-46
2022/05/08 05:33:38;;;;;;;10.25;4.00;;;;;;;12.94;nan;102481.75;5044795;28;20032;-50
2022/05/08 05:36:04;;;;;;;5.65;3.35;;;;;;;13.06;nan;102476.44;5048909;28;20482;-47
2022/05/08 05:38:30;;;;;;;8.25;3.70;;;;;;;13.20;nan;102483.38;5051242;28;20437;-46
2022/05/08 05:40:55;;;;;;;14.57;4.30;;;;;;;13.26;nan;102483.31;5044319;28;20075;-47
2022/05/08 05:43:21;;;;;;;8.15;3.70;;;;;;;13.33;nan;102485.94;5044907;28;20033;-49
2022/05/08 05:48:59;;;;;;;8.60;3.60;;;;;;;13.64;nan;102490.31;5038880;28;20079;-47
2022/05/08 05:51:24;;;;;;;9.07;3.55;;;;;;;13.69;nan;102497.75;5044186;28;20496;-46
2022/05/08 05:53:50;;;;;;;6.78;3.70;;;;;;;13.58;nan;102494.75;5045762;28;20025;-46
2022/05/08 05:56:15;;;;;;;9.90;3.58;;;;;;;13.59;nan;102492.88;5048162;28;20025;-47
2022/05/08 05:58:41;;;;;;;12.27;3.40;;;;;;;13.58;nan;102502.84;5040232;28;20033;-46
2022/05/08 06:01:06;;;;;;;11.82;4.07;;;;;;;13.46;nan;102499.22;5040461;28;20033;-47
2022/05/08 06:03:32;;;;;;;6.43;3.40;;;;;;;13.48;nan;102499.03;5043832;28;20024;-48
2022/05/08 06:05:58;;;;;;;9.32;3.85;;;;;;;13.60;nan;102495.34;5027176;28;20033;-46
2022/05/08 06:08:23;;;;;;;11.23;3.65;;;;;;;13.76;nan;102498.47;5045770;28;20025;-46
2022/05/08 06:10:50;;;;;;;13.30;3.97;;;;;;;13.84;nan;102500.88;5045673;28;20024;-47
2022/05/08 06:13:15;;;;;;;6.47;2.97;;;;;;;14.00;nan;102507.47;5045855;28;20060;-45
2022/05/08 06:15:41;;;;;;;13.82;3.80;;;;;;;14.02;nan;102508.94;5042681;28;20060;-47
2022/05/08 06:18:07;;;;;;;5.95;3.40;;;;;;;14.14;nan;102506.25;5047154;28;20055;-47
2022/05/08 06:20:32;;;;;;;10.70;3.53;;;;;;;14.35;nan;102507.59;5045459;28;20516;-46
2022/05/08 06:22:58;;;;;;;8.48;3.78;;;;;;;14.55;nan;102518.97;5043994;28;20025;-50
2022/05/08 06:25:24;;;;;;;10.00;3.17;;;;;;;14.59;nan;102517.44;5043483;28;20024;-46
2022/05/08 06:27:49;;;;;;;10.40;3.80;;;;;;;14.58;nan;102521.19;5043272;28;20035;-48
2022/05/08 06:30:15;;;;;;;8.80;3.40;;;;;;;14.72;nan;102525.34;5045383;28;20367;-49
2022/05/08 06:32:41;;;;;;;13.68;4.65;;;;;;;14.65;nan;102518.38;5047960;28;20024;-46
2022/05/08 06:35:07;;;;;;;7.70;3.78;;;;;;;14.62;nan;102522.38;5048276;28;20024;-46
2022/05/08 06:37:32;;;;;;;11.15;3.60;;;;;;;14.81;nan;102523.09;5047155;28;20036;-47
2022/05/08 06:39:59;;;;;;;12.15;3.58;;;;;;;14.83;nan;102521.00;5044301;28;20020;-50
2022/05/08 06:42:24;;;;;;;9.55;3.58;;;;;;;15.00;nan;102523.81;5023158;28;20478;-45
2022/05/08 06:44:50;;;;;;;13.73;3.50;;;;;;;15.05;nan;102529.34;5040734;28;20025;-47
2022/05/08 06:47:16;;;;;;;5.50;3.10;;;;;;;15.07;nan;102525.34;5043126;28;20620;-46
2022/05/08 06:49:45;;;;;;;10.25;3.35;;;;;;;15.25;nan;102535.19;5034506;28;20039;-46
2022/05/08 06:52:27;;;;;;;12.57;3.40;;;;;;;15.38;nan;102531.44;5054771;28;20017;-46
2022/05/08 06:54:54;;;;;;;12.07;3.15;;;;;;;15.52;nan;102530.13;5052426;28;20021;-49
2022/05/08 06:57:19;;;;;;;9.15;3.42;;;;;;;15.72;nan;102529.75;5031086;28;20399;-46
2022/05/08 07:02:30;;;;;;;13.00;3.75;;;;;;;15.97;nan;102537.53;5048648;28;20048;-46
2022/05/08 07:04:56;;;;;;;12.73;3.47;;;;;;;16.08;nan;102522.34;5047441;28;20024;-46
2022/05/08 07:07:23;;;;;;;9.75;3.28;;;;;;;15.88;nan;102529.00;5045829;28;20029;-47
2022/05/08 07:09:51;;;;;;;9.60;3.35;;;;;;;15.68;nan;102529.44;5040122;28;20166;-46
2022/05/08 07:12:16;;;;;;;9.27;3.08;;;;;;;15.54;nan;102527.19;5051422;28;20017;-48
2022/05/08 07:14:42;;;;;;;10.27;2.90;;;;;;;15.78;nan;102534.19;5045040;28;20025;-47
2022/05/08 07:17:10;;;;;;;10.15;3.20;;;;;;;15.95;nan;102536.97;5053592;28;20033;-45
2022/05/08 07:19:35;;;;;;;12.77;3.00;;;;;;;16.21;nan;102528.28;5050487;28;20113;-45
2022/05/08 07:22:02;;;;;;;9.95;3.47;;;;;;;16.35;nan;102534.25;5045931;28;20119;-46
2022/05/08 07:24:41;;;;;;;11.63;2.85;;;;;;;16.49;nan;102534.72;5045878;28;20082;-46
2022/05/08 07:27:10;;;;;;;9.20;3.15;;;;;;;16.42;nan;102532.19;5046706;28;20041;-45
2022/05/08 07:29:37;;;;;;;8.73;2.85;;;;;;;16.53;nan;102534.00;5045978;28;20511;-46
2022/05/08 07:32:03;;;;;;;9.95;3.47;;;;;;;16.72;nan;102531.09;5049767;28;20474;-46
2022/05/08 07:37:14;;;;;;;9.90;3.17;;;;;;;16.93;nan;102549.31;5045739;28;20090;-46
2022/05/08 07:39:41;;;;;;;9.27;3.22;;;;;;;16.95;nan;102543.66;5046615;28;20047;-46
2022/05/08 07:42:07;;;;;;;10.70;3.20;;;;;;;17.06;nan;102538.16;5044327;28;20710;-46
2022/05/08 07:44:34;;;;;;;12.70;3.35;;;;;;;17.27;nan;102541.16;5043695;28;20060;-46
2022/05/08 07:47:01;;;;;;;8.90;2.92;;;;;;;17.42;nan;102538.66;5042715;28;20029;-45
2022/05/08 07:49:27;;;;;;;12.23;3.33;;;;;;;17.48;nan;102546.59;5047603;28;20067;-47
2022/05/08 07:51:53;;;;;;;8.73;3.13;;;;;;;17.64;nan;102550.34;5046536;28;20024;-45
2022/05/08 07:54:19;;;;;;;13.70;3.35;;;;;;;17.69;nan;102547.72;5043500;28;20417;-46
2022/05/08 07:56:48;;;;;;;10.43;3.15;;;;;;;17.85;nan;102553.31;5039956;28;20068;-46
2022/05/08 07:59:15;;;;;;;10.75;3.30;;;;;;;17.96;nan;102549.66;5038873;28;20044;-45
2022/05/08 08:01:41;;;;;;;10.77;4.13;;;;;;;18.04;nan;102551.91;5042801;28;20033;-46
2022/05/08 08:04:10;;;;;;;13.57;3.33;;;;;;;18.15;nan;102564.53;5045201;28;20029;-46
2022/05/08 08:06:38;;;;;;;8.00;3.40;;;;;;;18.24;nan;102554.03;5049510;28;20642;-46
2022/05/08 08:09:06;;;;;;;7.13;2.42;;;;;;;18.29;nan;102559.50;5039719;28;20031;-45
2022/05/08 08:11:32;;;;;;;14.65;3.65;;;;;;;18.38;nan;102561.50;5044043;28;20040;-46
2022/05/08 08:13:59;;;;;;;8.77;2.85;;;;;;;18.33;nan;102556.03;5044834;28;20052;-45
2022/05/08 08:16:25;;;;;;;9.60;3.35;;;;;;;17.93;nan;102561.00;5040944;28;20033;-45
2022/05/08 08:18:54;;;;;;;9.23;3.42;;;;;;;17.80;nan;102563.03;5045958;28;20029;-49
2022/05/08 08:21:20;;;;;;;7.55;3.30;;;;;;;18.00;nan;102572.50;5040484;28;20026;-46
2022/05/08 08:23:47;;;;;;;5.63;2.63;;;;;;;18.18;nan;102569.44;5042863;28;20017;-46
2022/05/08 08:26:13;;;;;;;12.27;4.10;;;;;;;17.71;nan;102578.09;5042723;28;20029;-45
2022/05/08 08:28:40;;;;;;;10.05;3.33;;;;;;;17.57;nan;102574.06;5045174;28;20028;-45
2022/05/08 08:31:09;;;;;;;9.60;2.88;;;;;;;17.52;nan;102582.13;5043977;28;20063;-46
2022/05/08 08:33:40;;;;;;;10.70;2.72;;;;;;;17.61;nan;102580.66;5046643;28;20394;-47
2022/05/08 08:36:08;;;;;;;14.13;2.70;;;;;;;17.89;nan;102584.28;5043947;28;20029;-46
2022/05/08 08:38:37;;;;;;;10.13;2.58;;;;;;;17.83;nan;102586.13;5043811;28;20119;-45
2022/05/08 08:41:04;;;;;;;9.15;2.78;;;;;;;17.95;nan;102583.25;5042718;28;20390;-48
2022/05/08 08:49:16;;;;;;;10.40;3.08;;;;;;;17.58;nan;102597.41;5047377;28;20114;-45
2022/05/08 08:51:44;;;;;;;63.35;31.58;;;;;;;17.76;nan;102594.41;5045252;28;20041;-46
2022/05/08 08:54:11;;;;;;;56.08;35.00;;;;;;;17.87;nan;102595.38;5044739;28;20676;-46
2022/05/08 08:56:40;;;;;;;14.13;5.57;;;;;;;18.11;nan;102595.94;5038969;28;20453;-45
2022/05/08 08:59:06;;;;;;;11.00;2.63;;;;;;;18.33;nan;102601.34;5038307;28;20048;-45
2022/05/08 09:01:40;;;;;;;12.85;3.47;;;;;;;18.53;nan;102603.47;5041351;28;20030;-46
2022/05/08 09:04:07;;;;;;;11.80;2.47;;;;;;;18.47;nan;102609.88;5044178;28;20539;-45
2022/05/08 09:06:47;;;;;;;11.02;3.20;;;;;;;18.50;nan;102612.94;5044139;28;20055;-46
2022/05/08 09:09:34;;;;;;;12.57;3.17;;;;;;;18.51;nan;102608.31;5045079;28;20029;-46
2022/05/08 09:12:02;;;;;;;9.27;2.60;;;;;;;18.30;nan;102605.38;5032224;28;20028;-45
2022/05/08 09:14:36;;;;;;;6.15;2.17;;;;;;;17.76;nan;102605.25;5041142;28;20497;-48
2022/05/08 09:17:06;;;;;;;8.60;2.70;;;;;;;17.90;nan;102621.16;5035755;28;20620;-47
2022/05/08 09:19:39;;;;;;;9.07;2.65;;;;;;;17.67;nan;102617.59;5035949;28;20040;-49
2022/05/08 09:22:11;;;;;;;9.10;2.35;;;;;;;17.72;nan;102614.97;5037752;28;20174;-47
2022/05/08 09:24:52;;;;;;;10.32;2.83;;;;;;;17.60;nan;102610.72;5040220;28;20269;-47
2022/05/08 09:27:18;;;;;;;9.23;2.10;;;;;;;17.80;nan;102616.44;5038580;28;20032;-50
2022/05/08 09:29:44;;;;;;;9.90;2.15;;;;;;;18.05;nan;102621.38;5037191;28;20090;-46
2022/05/08 09:32:30;;;;;;;7.85;1.77;;;;;;;18.06;nan;102614.88;5041605;28;20025;-48
2022/05/08 09:34:57;;;;;;;6.95;1.90;;;;;;;17.96;nan;102617.47;5035163;28;20032;-49
2022/05/08 09:37:24;;;;;;;10.02;2.42;;;;;;;17.79;nan;102615.63;5037190;28;20112;-46
2022/05/08 09:39:51;;;;;;;5.15;2.20;;;;;;;17.86;nan;102614.63;5041889;28;20036;-47
2022/05/08 09:42:38;;;;;;;8.55;2.08;;;;;;;17.53;nan;102609.00;5043951;28;20029;-46
2022/05/08 09:45:07;;;;;;;11.13;2.03;;;;;;;17.71;nan;102616.03;5033660;28;20044;-45
2022/05/08 09:47:48;;;;;;;10.10;1.90;;;;;;;17.86;nan;102610.00;5037707;28;20116;-46
2022/05/08 09:50:17;;;;;;;6.35;2.00;;;;;;;18.14;nan;102610.91;5035833;28;20037;-46
2022/05/08 09:52:45;;;;;;;9.45;1.90;;;;;;;18.37;nan;102611.44;5036224;28;20063;-46
2022/05/08 09:55:14;;;;;;;6.10;1.83;;;;;;;18.26;nan;102606.97;5040208;28;20090;-46
2022/05/08 09:57:41;;;;;;;4.20;1.85;;;;;;;18.26;nan;102609.66;5037012;28;20040;-46
2022/05/08 10:00:09;;;;;;;8.27;2.47;;;;;;;18.04;nan;102622.44;5037803;28;20036;-48
2022/05/08 10:02:35;;;;;;;8.57;2.25;;;;;;;18.17;nan;102613.94;5041243;28;20033;-46
2022/05/08 10:05:01;;;;;;;9.88;2.40;;;;;;;18.48;nan;102611.53;5040847;28;20074;-47
2022/05/08 10:07:27;;;;;;;5.50;2.15;;;;;;;18.35;nan;102615.47;5041042;28;20025;-48
2022/05/08 10:15:29;;;;;;;5.85;1.67;;;;;;;18.05;nan;102605.09;5039805;28;20048;-46
2022/05/08 10:18:24;;;;;;;5.13;1.65;;;;;;;18.31;nan;102615.19;5039611;28;20029;-47
2022/05/08 10:21:12;;;;;;;5.57;1.90;;;;;;;18.16;nan;102606.84;5040456;28;20488;-50
2022/05/08 10:23:45;;;;;;;7.13;2.25;;;;;;;18.57;nan;102618.16;5044226;28;20064;-50
2022/05/08 10:26:15;;;;;;;7.80;2.17;;;;;;;18.85;nan;102620.63;5043679;28;20029;-47
2022/05/08 10:29:04;;;;;;;7.20;2.00;;;;;;;18.94;nan;102610.91;5038695;28;20152;-48
2022/05/08 10:31:48;;;;;;;6.75;2.22;;;;;;;19.05;nan;102611.00;5029071;28;20037;-47
2022/05/08 10:34:16;;;;;;;7.10;1.77;;;;;;;18.93;nan;102592.97;5041832;28;20033;-47
2022/05/08 10:37:13;;;;;;;7.72;2.30;;;;;;;18.86;nan;102605.97;5039680;28;20580;-48
2022/05/08 10:39:45;;;;;;;5.50;1.70;;;;;;;19.12;nan;102596.13;5003415;28;20042;-47
2022/05/08 10:42:45;;;;;;;5.35;1.45;;;;;;;19.23;nan;102607.88;5042795;28;20580;-50
2022/05/08 10:45:32;;;;;;;7.70;1.95;;;;;;;19.55;nan;102611.38;5039325;28;20032;-47
2022/05/08 10:47:58;;;;;;;38.10;22.50;;;;;;;19.52;nan;102617.31;5036000;28;20107;-48
2022/05/08 10:50:24;;;;;;;17.65;9.40;;;;;;;19.37;nan;102609.06;5042642;28;20071;-49
2022/05/08 10:52:50;;;;;;;9.77;4.47;;;;;;;19.47;nan;102608.31;5033838;28;20086;-49
2022/05/08 10:55:20;;;;;;;6.90;1.83;;;;;;;19.56;nan;102612.19;5040612;28;20104;-50
2022/05/08 10:57:51;;;;;;;6.97;1.83;;;;;;;19.20;nan;102611.09;5036815;28;20119;-48
2022/05/08 11:00:23;;;;;;;6.45;2.17;;;;;;;19.29;nan;102602.22;5035793;28;20029;-50
2022/05/08 11:02:56;;;;;;;7.60;2.22;;;;;;;19.25;nan;102603.00;5033476;28;20062;-49
2022/05/08 11:05:29;;;;;;;8.05;1.60;;;;;;;19.55;nan;102611.38;5039778;28;20021;-50
2022/05/08 11:08:05;;;;;;;9.02;2.15;;;;;;;19.68;nan;102618.25;5032989;28;20107;-48
2022/05/08 11:10:38;;;;;;;7.88;1.80;;;;;;;19.77;nan;102613.13;5036628;28;20499;-48
2022/05/08 11:13:39;;;;;;;8.10;1.98;;;;;;;20.04;nan;102605.63;5038241;28;20115;-48
2022/05/08 11:16:34;;;;;;;7.90;1.50;;;;;;;20.21;nan;102613.56;5032134;28;20097;-48
2022/05/08 11:19:01;;;;;;;6.68;1.65;;;;;;;20.55;nan;102605.78;5035963;28;20112;-49
2022/05/08 11:21:27;;;;;;;6.85;2.10;;;;;;;20.80;nan;102611.25;5033478;28;20140;-47
2022/05/08 11:23:54;;;;;;;5.75;1.95;;;;;;;20.90;nan;102604.19;5036931;28;20139;-47
2022/05/08 11:26:28;;;;;;;5.28;1.65;;;;;;;20.63;nan;102610.69;5035756;28;20028;-47
2022/05/08 11:28:55;;;;;;;5.93;1.97;;;;;;;20.55;nan;102600.34;5015979;28;20506;-47
2022/05/08 11:31:30;;;;;;;4.78;1.70;;;;;;;20.64;nan;102598.72;5037191;28;20026;-51
2022/05/08 11:38:11;;;;;;;7.43;1.90;;;;;;;21.08;nan;102599.00;5074935;28;20090;-47
2022/05/08 11:40:37;;;;;;;7.65;1.65;;;;;;;21.53;nan;102599.22;5045566;28;20056;-48
2022/05/08 11:43:04;;;;;;;10.00;2.15;;;;;;;21.44;nan;102593.53;5034212;28;20166;-47
2022/05/08 11:45:29;;;;;;;8.02;2.03;;;;;;;21.24;nan;102588.94;5036608;28;20660;-47
2022/05/08 11:47:55;;;;;;;6.35;1.90;;;;;;;21.49;nan;102592.69;5040359;28;20139;-49
2022/05/08 11:50:21;;;;;;;6.47;2.15;;;;;;;21.74;nan;102589.06;5038714;28;20119;-49
2022/05/08 11:52:46;;;;;;;5.47;1.80;;;;;;;21.95;nan;102593.34;5034696;28;20020;-48
2022/05/08 11:55:13;;;;;;;8.90;1.65;;;;;;;21.87;nan;102589.25;5034054;28;20021;-49
2022/05/08 11:57:47;;;;;;;5.18;1.58;;;;;;;22.00;nan;102588.66;5032456;28;20040;-49
2022/05/08 12:00:14;;;;;;;;;;;;;;;21.80;nan;102586.03;5040828;28;20823;-49
2022/05/08 12:02:41;;;;;;;5.20;1.20;;;;;;;21.86;nan;102586.81;5036969;28;20401;-49
2022/05/08 12:05:19;;;;;;;5.50;1.92;;;;;;;21.53;nan;102585.56;5035300;28;20552;-50
2022/05/08 12:07:45;;;;;;;8.98;1.90;;;;;;;21.49;nan;102588.03;5032097;28;20072;-49
2022/05/08 12:10:11;;;;;;;8.27;1.77;;;;;;;21.65;nan;102594.28;5039248;28;20063;-47
2022/05/08 12:12:38;;;;;;;7.25;1.70;;;;;;;21.65;nan;102595.09;5017742;28;20166;-47
2022/05/08 12:15:07;;;;;;;8.07;2.03;;;;;;;21.79;nan;102583.59;5017448;28;20017;-46
2022/05/08 12:17:44;;;;;;;6.45;2.17;;;;;;;22.06;nan;102585.94;5034685;28;20028;-47